Time;durP1;ratioP1;P1;durP2;ratioP2;P2;SDS_P1;SDS_P2;PMS_P1;PMS_P2;Temp;Humidity;BMP_temperature;BMP_pressure;BME280_temperature;BME280_humidity;BME280_pressure;Samples;Min_cycle;Max_cycle;Signal;HPM_P1;HPM_P2
2022/03/07 00:01:15;;;;;;;;;81.00;64.75;8.30;66.00;;;;;;5034812;28;8770;-65
2022/03/07 00:03:41;;;;;;;;;78.75;60.50;8.40;65.10;;;;;;5035981;28;8794;-68
2022/03/07 00:06:07;;;;;;;;;84.00;65.00;8.50;64.70;;;;;;5034354;28;8863;-65
2022/03/07 00:08:32;;;;;;;;;75.50;59.75;8.20;65.80;;;;;;5034243;28;8770;-67
2022/03/07 00:10:59;;;;;;;;;80.25;65.75;8.00;67.20;;;;;;5034206;28;8774;-65
2022/03/07 00:13:25;;;;;;;;;83.00;66.00;7.90;67.10;;;;;;5034428;28;8759;-65
2022/03/07 00:15:50;;;;;;;;;83.75;64.50;7.90;67.70;;;;;;5034295;28;8848;-65
2022/03/07 00:18:16;;;;;;;;;88.50;67.00;7.90;67.40;;;;;;5034641;28;8917;-67
2022/03/07 00:20:42;;;;;;;;;66.25;56.50;7.80;68.60;;;;;;5034189;28;8754;-68
2022/03/07 00:23:11;;;;;;;;;78.00;61.25;8.00;67.90;;;;;;5034049;28;8857;-67
2022/03/07 00:25:38;;;;;;;;;82.00;65.00;8.00;66.80;;;;;;5034091;28;8897;-64
2022/03/07 00:28:05;;;;;;;;;73.50;60.25;8.30;66.10;;;;;;5034125;28;8783;-65
2022/03/07 00:30:30;;;;;;;;;76.75;62.75;8.10;66.00;;;;;;5034027;28;8778;-65
2022/03/07 00:32:56;;;;;;;;;84.75;66.75;8.30;65.90;;;;;;5034263;28;8876;-68
2022/03/07 00:35:22;;;;;;;;;83.00;67.00;8.30;64.90;;;;;;5033932;28;8910;-68
2022/03/07 00:37:48;;;;;;;;;87.00;66.00;8.30;65.30;;;;;;5034237;28;8758;-65
2022/03/07 00:40:14;;;;;;;;;84.25;66.00;8.00;66.40;;;;;;5033948;28;8762;-66
2022/03/07 00:42:40;;;;;;;;;86.50;66.25;8.00;66.40;;;;;;5050677;28;8829;-66
2022/03/07 00:45:07;;;;;;;;;87.50;68.50;8.00;67.10;;;;;;5062491;28;8872;-67
2022/03/07 00:47:34;;;;;;;;;84.50;66.50;7.80;67.60;;;;;;5043993;28;8928;-67
2022/03/07 00:50:01;;;;;;;;;83.00;67.00;7.70;69.10;;;;;;5063425;28;8901;-67
2022/03/07 00:52:27;;;;;;;;;89.50;70.25;7.50;68.90;;;;;;5062319;28;8827;-65
2022/03/07 00:54:53;;;;;;;;;86.00;66.50;7.30;70.40;;;;;;5061480;28;8830;-66
2022/03/07 00:57:19;;;;;;;;;84.75;64.25;7.10;70.90;;;;;;5064274;28;8770;-66
2022/03/07 00:59:44;;;;;;;;;90.25;72.25;7.10;71.90;;;;;;5065580;28;8776;-66
2022/03/07 01:02:11;;;;;;;;;93.25;68.00;7.20;72.60;;;;;;5059653;28;8784;-68
2022/03/07 01:04:37;;;;;;;;;89.25;68.50;7.20;71.60;;;;;;5065744;28;8764;-64
2022/03/07 01:07:03;;;;;;;;;86.50;68.50;7.10;71.80;;;;;;5066555;28;8753;-66
2022/03/07 01:09:29;;;;;;;;;91.50;70.50;7.40;71.50;;;;;;5066690;28;8756;-67
2022/03/07 01:11:55;;;;;;;;;88.75;68.75;7.60;69.70;;;;;;5057490;28;8752;-65
2022/03/07 01:14:21;;;;;;;;;91.00;70.75;7.50;70.30;;;;;;5057041;28;8816;-67
2022/03/07 01:16:47;;;;;;;;;87.25;68.50;7.50;70.40;;;;;;5057316;28;8780;-66
2022/03/07 01:19:12;;;;;;;;;84.50;65.75;7.40;70.00;;;;;;5057064;28;8752;-64
2022/03/07 01:21:41;;;;;;;;;83.25;67.25;7.50;69.60;;;;;;5056940;28;8780;-67
2022/03/07 01:24:08;;;;;;;;;87.50;68.00;7.60;69.20;;;;;;5057238;28;9423;-67
2022/03/07 01:26:34;;;;;;;;;84.50;67.00;7.60;69.40;;;;;;5056934;28;8760;-65
2022/03/07 01:29:00;;;;;;;;;83.50;65.25;7.60;68.60;;;;;;5057050;28;8768;-65
2022/03/07 01:31:26;;;;;;;;;76.75;62.50;7.60;69.50;;;;;;5056804;28;8802;-66
2022/03/07 01:33:51;;;;;;;;;78.75;61.75;7.80;68.30;;;;;;5056950;28;8764;-65
2022/03/07 01:36:17;;;;;;;;;81.50;63.50;7.70;67.70;;;;;;5056642;28;8895;-66
2022/03/07 01:38:43;;;;;;;;;81.00;62.00;7.80;67.70;;;;;;5056719;28;8878;-65
2022/03/07 01:41:09;;;;;;;;;80.25;62.00;7.80;67.30;;;;;;5056583;28;8776;-65
2022/03/07 01:43:35;;;;;;;;;79.25;63.00;7.90;67.20;;;;;;5056877;28;8760;-67
2022/03/07 01:46:00;;;;;;;;;73.50;56.50;7.80;67.60;;;;;;5056499;28;8800;-65
2022/03/07 01:48:26;;;;;;;;;81.25;65.00;7.50;67.80;;;;;;5056455;28;8790;-65
2022/03/07 01:50:53;;;;;;;;;75.50;60.00;7.50;68.50;;;;;;5056477;28;8771;-65
2022/03/07 01:53:21;;;;;;;;;74.00;58.00;7.50;68.60;;;;;;5056063;28;8806;-68
2022/03/07 01:55:47;;;;;;;;;75.50;60.50;7.60;68.80;;;;;;5056523;28;8910;-66
2022/03/07 01:58:13;;;;;;;;;74.00;59.50;7.80;67.90;;;;;;5056292;28;8875;-67
2022/03/07 02:00:39;;;;;;;;;73.75;58.75;8.00;67.50;;;;;;5056231;28;8891;-65
2022/03/07 02:03:06;;;;;;;;;71.50;57.50;8.10;66.30;;;;;;5056297;28;8764;-67
2022/03/07 02:05:32;;;;;;;;;75.50;61.00;8.10;66.10;;;;;;5056197;28;8772;-67
2022/03/07 02:07:59;;;;;;;;;74.75;59.25;8.30;65.50;;;;;;5055911;28;8767;-66
2022/03/07 02:10:28;;;;;;;;;77.50;61.25;8.50;64.60;;;;;;5056078;28;8759;-67
2022/03/07 02:12:54;;;;;;;;;72.00;57.25;8.50;63.90;;;;;;5056092;28;8782;-65
2022/03/07 02:15:20;;;;;;;;;72.75;58.75;8.60;63.90;;;;;;5055926;28;9478;-65
2022/03/07 02:17:46;;;;;;;;;74.00;60.50;8.60;63.60;;;;;;5055887;28;8779;-66
2022/03/07 02:20:13;;;;;;;;;81.00;63.00;8.70;63.50;;;;;;5056151;28;8841;-65
2022/03/07 02:22:39;;;;;;;;;82.00;66.00;8.70;63.40;;;;;;5056166;28;8779;-67
2022/03/07 02:25:06;;;;;;;;;82.25;65.00;8.60;63.10;;;;;;5056144;28;8795;-64
2022/03/07 02:27:32;;;;;;;;;88.75;68.00;8.70;62.90;;;;;;5056020;28;8887;-68
2022/03/07 02:30:05;;;;;;;;;84.00;65.75;8.70;63.00;;;;;;5055962;28;8748;-66
2022/03/07 02:32:31;;;;;;;;;75.25;59.50;8.70;63.20;;;;;;5056010;28;8784;-67
2022/03/07 02:34:57;;;;;;;;;86.00;67.00;8.70;62.90;;;;;;5055498;28;8812;-68
2022/03/07 02:37:23;;;;;;;;;73.00;53.00;8.70;62.90;;;;;;5055595;28;8791;-66
2022/03/07 02:39:49;;;;;;;;;86.25;69.00;8.70;62.90;;;;;;5055721;28;8779;-66
2022/03/07 02:42:15;;;;;;;;;87.00;68.50;8.70;62.90;;;;;;5055494;28;8775;-65
2022/03/07 02:44:41;;;;;;;;;87.25;66.50;8.80;62.90;;;;;;5055543;28;8798;-67
2022/03/07 02:47:11;;;;;;;;;86.50;64.25;8.80;62.70;;;;;;5055310;28;8768;-66
2022/03/07 02:49:37;;;;;;;;;89.00;66.25;8.80;62.50;;;;;;5055331;28;8776;-65
2022/03/07 02:52:03;;;;;;;;;93.25;74.00;8.80;63.00;;;;;;5055207;28;8796;-66
2022/03/07 02:54:28;;;;;;;;;90.00;69.25;8.80;62.80;;;;;;5054974;28;8844;-65
2022/03/07 02:56:54;;;;;;;;;96.00;76.25;8.80;62.70;;;;;;5055196;28;8796;-66
2022/03/07 02:59:20;;;;;;;;;87.75;68.50;8.60;62.90;;;;;;5055415;28;8799;-65
2022/03/07 03:01:47;;;;;;;;;84.00;65.25;8.70;62.80;;;;;;5055361;28;8771;-66
2022/03/07 03:04:13;;;;;;;;;88.00;68.50;8.70;63.00;;;;;;5055097;28;8772;-65
2022/03/07 03:06:38;;;;;;;;;86.00;65.50;8.70;62.90;;;;;;5055053;28;8782;-65
2022/03/07 03:09:04;;;;;;;;;89.50;69.75;8.60;62.60;;;;;;5054988;28;8785;-67
2022/03/07 03:11:32;;;;;;;;;85.00;66.25;8.70;62.60;;;;;;5055213;28;8784;-67
2022/03/07 03:13:57;;;;;;;;;79.00;61.75;8.60;63.10;;;;;;5054872;28;8790;-65
2022/03/07 03:16:23;;;;;;;;;77.00;59.25;8.70;62.90;;;;;;5051978;28;8796;-66
2022/03/07 03:18:49;;;;;;;;;80.75;64.00;8.60;62.70;;;;;;5054937;28;8757;-66
2022/03/07 03:21:15;;;;;;;;;78.75;62.00;8.80;62.80;;;;;;5054545;28;8756;-66
2022/03/07 03:23:40;;;;;;;;;86.25;66.00;8.60;62.70;;;;;;5054761;28;8836;-67
2022/03/07 03:26:06;;;;;;;;;47.75;41.50;8.70;62.60;;;;;;5054705;28;8764;-66
2022/03/07 03:28:32;;;;;;;;;81.75;60.50;8.60;62.70;;;;;;5054698;28;8903;-67
2022/03/07 03:30:58;;;;;;;;;76.00;61.75;8.40;63.00;;;;;;5054653;28;8772;-67
2022/03/07 03:33:24;;;;;;;;;71.75;59.25;8.60;63.10;;;;;;5054692;28;8874;-65
2022/03/07 03:35:49;;;;;;;;;71.00;58.00;8.50;62.70;;;;;;5054467;28;8888;-65
2022/03/07 03:38:15;;;;;;;;;78.00;61.00;8.50;63.10;;;;;;5054503;28;8792;-66
2022/03/07 03:40:41;;;;;;;;;81.25;63.75;8.50;63.00;;;;;;5054453;28;8777;-66
2022/03/07 03:43:07;;;;;;;;;86.25;65.50;8.70;63.10;;;;;;5054565;28;8779;-65
2022/03/07 03:45:33;;;;;;;;;82.25;64.00;8.70;62.50;;;;;;5054417;28;8764;-66
2022/03/07 03:47:59;;;;;;;;;73.25;60.00;8.80;62.40;;;;;;5054624;28;9462;-66
2022/03/07 03:50:25;;;;;;;;;72.50;56.25;8.70;62.30;;;;;;5054424;28;8756;-66
2022/03/07 03:52:51;;;;;;;;;80.75;63.75;8.80;62.20;;;;;;5054586;28;8784;-65
2022/03/07 03:55:17;;;;;;;;;73.75;59.50;8.80;62.00;;;;;;5054013;28;8871;-66
2022/03/07 03:57:44;;;;;;;;;80.75;60.00;8.60;62.80;;;;;;5054547;28;8756;-66
2022/03/07 04:00:14;;;;;;;;;75.50;60.25;8.70;62.60;;;;;;5054271;28;8761;-67
2022/03/07 04:02:42;;;;;;;;;70.75;56.75;8.80;62.30;;;;;;5054236;28;8756;-65
2022/03/07 04:05:10;;;;;;;;;72.25;56.50;8.80;62.10;;;;;;5054505;28;8849;-65
2022/03/07 04:07:36;;;;;;;;;84.50;65.00;8.90;61.70;;;;;;5054276;28;8764;-65
2022/03/07 04:10:02;;;;;;;;;81.75;63.00;8.90;61.80;;;;;;5054228;28;8778;-68
2022/03/07 04:12:28;;;;;;;;;81.75;64.75;8.90;61.70;;;;;;5054150;28;8821;-66
2022/03/07 04:14:54;;;;;;;;;76.25;60.00;8.90;61.70;;;;;;5054045;28;8800;-65
2022/03/07 04:17:20;;;;;;;;;76.75;61.50;9.00;61.70;;;;;;5054132;28;8879;-65
2022/03/07 04:19:45;;;;;;;;;81.00;61.75;8.90;61.70;;;;;;5054065;28;8764;-68
2022/03/07 04:22:11;;;;;;;;;73.50;60.75;8.90;61.40;;;;;;5054041;28;8840;-67
2022/03/07 04:24:37;;;;;;;;;79.50;61.50;8.90;61.50;;;;;;5054341;28;8815;-65
2022/03/07 04:27:03;;;;;;;;;80.75;65.25;8.90;61.40;;;;;;5054339;28;8772;-68
2022/03/07 04:29:29;;;;;;;;;77.75;61.00;8.80;61.30;;;;;;5036303;28;9406;-65
2022/03/07 04:31:55;;;;;;;;;69.25;55.00;8.90;61.50;;;;;;5055602;28;8764;-67
2022/03/07 04:34:21;;;;;;;;;81.25;65.75;8.90;61.50;;;;;;5057816;28;8780;-67
2022/03/07 04:36:46;;;;;;;;;84.00;66.50;8.80;61.50;;;;;;5057931;28;8874;-65
2022/03/07 04:39:12;;;;;;;;;84.25;64.50;8.90;61.40;;;;;;5058109;28;8756;-65
2022/03/07 04:41:39;;;;;;;;;86.00;69.50;8.80;61.50;;;;;;5057781;28;8799;-65
2022/03/07 04:44:06;;;;;;;;;96.00;79.25;8.80;62.40;;;;;;5057716;28;8780;-65
2022/03/07 04:46:32;;;;;;;;;102.50;92.25;8.80;61.70;;;;;;5057780;28;8853;-64
2022/03/07 04:48:58;;;;;;;;;111.00;99.50;8.80;61.40;;;;;;5057689;28;8771;-65
2022/03/07 04:51:24;;;;;;;;;101.25;90.25;8.70;62.20;;;;;;5057651;28;8834;-67
2022/03/07 04:53:50;;;;;;;;;103.75;78.25;8.70;62.00;;;;;;5057380;28;8840;-67
2022/03/07 04:56:16;;;;;;;;;79.75;62.50;8.60;61.80;;;;;;5057713;28;8893;-65
2022/03/07 04:58:41;;;;;;;;;95.75;74.75;8.50;62.30;;;;;;5057777;28;8752;-66
2022/03/07 05:01:07;;;;;;;;;89.75;68.50;8.50;62.70;;;;;;5057382;28;8775;-68
2022/03/07 05:03:33;;;;;;;;;97.50;81.25;8.50;62.40;;;;;;5057639;28;8790;-68
2022/03/07 05:05:59;;;;;;;;;89.25;68.25;8.60;62.40;;;;;;5057661;28;8791;-67
2022/03/07 05:08:25;;;;;;;;;91.50;70.25;8.60;62.00;;;;;;5057356;28;8792;-67
2022/03/07 05:10:51;;;;;;;;;90.75;73.50;8.70;61.90;;;;;;5057270;28;8800;-66
2022/03/07 05:13:16;;;;;;;;;90.00;70.75;8.80;61.60;;;;;;5057401;28;8776;-69
2022/03/07 05:15:42;;;;;;;;;93.75;71.50;8.80;61.50;;;;;;5057055;28;8816;-67
2022/03/07 05:18:08;;;;;;;;;88.50;68.75;8.80;61.80;;;;;;5061650;28;8773;-65
2022/03/07 05:20:34;;;;;;;;;84.00;66.00;8.80;61.70;;;;;;5076875;28;8876;-63
2022/03/07 05:23:00;;;;;;;;;84.00;65.75;8.50;62.20;;;;;;5076985;28;8780;-65
2022/03/07 05:25:26;;;;;;;;;93.50;72.00;8.60;62.20;;;;;;5077154;28;8778;-66
2022/03/07 05:27:52;;;;;;;;;93.00;72.00;8.50;62.20;;;;;;5077026;28;8770;-64
2022/03/07 05:30:22;;;;;;;;;93.00;70.50;8.40;62.90;;;;;;5076841;28;8796;-65
2022/03/07 05:32:51;;;;;;;;;90.50;69.00;8.60;62.90;;;;;;5076930;28;8738;-64
2022/03/07 05:35:18;;;;;;;;;91.25;76.00;8.70;62.90;;;;;;5076737;28;8817;-66
2022/03/07 05:37:43;;;;;;;;;95.25;77.00;8.60;62.00;;;;;;5076966;28;8854;-66
2022/03/07 05:40:11;;;;;;;;;98.00;81.75;8.50;62.80;;;;;;5048595;28;8779;-65
2022/03/07 05:42:37;;;;;;;;;97.50;75.75;8.60;62.80;;;;;;5045381;28;8844;-63
2022/03/07 05:45:06;;;;;;;;;103.50;84.50;8.50;63.20;;;;;;5044184;28;8772;-64
2022/03/07 05:47:31;;;;;;;;;111.25;96.75;8.30;63.70;;;;;;5047685;28;8790;-63
2022/03/07 05:49:58;;;;;;;;;118.25;97.50;8.10;63.60;;;;;;5041609;28;8872;-65
2022/03/07 05:52:25;;;;;;;;;125.50;109.75;8.10;65.90;;;;;;5038084;28;8767;-64
2022/03/07 05:54:51;;;;;;;;;115.25;96.00;8.20;64.40;;;;;;5056108;28;8920;-65
2022/03/07 05:57:16;;;;;;;;;112.00;99.50;7.80;65.50;;;;;;5054655;28;8796;-67
2022/03/07 05:59:42;;;;;;;;;106.50;97.75;7.90;66.30;;;;;;5052877;28;8801;-69
2022/03/07 06:02:08;;;;;;;;;99.75;79.25;8.10;65.40;;;;;;5046529;28;8805;-66
2022/03/07 06:04:34;;;;;;;;;99.25;83.75;7.90;64.80;;;;;;5036356;28;9602;-65
2022/03/07 06:07:00;;;;;;;;;107.50;97.50;7.90;66.80;;;;;;5036127;28;8832;-64
2022/03/07 06:09:25;;;;;;;;;96.25;76.75;8.10;65.90;;;;;;5036485;28;8773;-65
2022/03/07 06:11:51;;;;;;;;;90.25;68.00;8.30;65.20;;;;;;5036092;28;9384;-64
2022/03/07 06:14:17;;;;;;;;;83.75;67.00;8.10;66.00;;;;;;5036334;28;8778;-70
2022/03/07 06:16:43;;;;;;;;;92.75;78.00;8.20;65.20;;;;;;5036338;28;8782;-66
2022/03/07 06:19:09;;;;;;;;;93.75;73.00;7.70;66.80;;;;;;5036033;28;8762;-61
2022/03/07 06:21:34;;;;;;;;;93.00;74.50;7.40;67.70;;;;;;5036255;28;8766;-62
2022/03/07 06:24:00;;;;;;;;;101.75;88.00;7.70;68.30;;;;;;5035886;28;8893;-62
2022/03/07 06:26:26;;;;;;;;;93.25;72.25;7.70;67.90;;;;;;5036186;28;8924;-62
2022/03/07 06:28:52;;;;;;;;;92.75;74.00;7.70;68.10;;;;;;5035932;28;8869;-63
2022/03/07 06:31:18;;;;;;;;;86.75;67.25;7.80;68.10;;;;;;5036114;28;8781;-62
2022/03/07 06:33:44;;;;;;;;;81.00;62.25;7.60;67.90;;;;;;5035811;28;8743;-62
2022/03/07 06:36:09;;;;;;;;;91.25;71.00;7.00;69.90;;;;;;5035892;28;8797;-62
2022/03/07 06:38:36;;;;;;;;;91.00;67.75;7.10;71.80;;;;;;5035699;28;8763;-62
2022/03/07 06:41:02;;;;;;;;;86.25;66.50;7.50;70.30;;;;;;5035571;28;8931;-62
2022/03/07 06:43:28;;;;;;;;;88.00;70.25;7.80;67.80;;;;;;5035639;28;8777;-62
2022/03/07 06:45:54;;;;;;;;;73.00;56.50;8.00;67.50;;;;;;5035787;28;8773;-62
2022/03/07 06:48:20;;;;;;;;;93.50;75.50;8.00;65.70;;;;;;5035450;28;8780;-62
2022/03/07 06:50:46;;;;;;;;;89.75;67.50;8.10;66.60;;;;;;5035394;28;8754;-62
2022/03/07 06:53:13;;;;;;;;;91.25;72.25;8.30;65.90;;;;;;5034990;28;8947;-62
2022/03/07 06:55:38;;;;;;;;;76.75;60.75;7.90;67.50;;;;;;5034430;28;8839;-62
2022/03/07 06:58:04;;;;;;;;;87.25;67.75;8.20;66.20;;;;;;5035567;28;8873;-65
2022/03/07 07:00:30;;;;;;;;;88.75;71.75;8.20;65.90;;;;;;5035325;28;8774;-64
2022/03/07 07:02:56;;;;;;;;;84.50;64.50;8.40;65.70;;;;;;5035494;28;8779;-64
2022/03/07 07:05:23;;;;;;;;;89.50;68.50;8.60;64.40;;;;;;5035183;28;8778;-63
2022/03/07 07:07:49;;;;;;;;;92.00;74.25;8.70;63.20;;;;;;5035034;28;8770;-64
2022/03/07 07:10:18;;;;;;;;;96.75;74.50;8.80;62.70;;;;;;5035027;28;8767;-63
2022/03/07 07:12:47;;;;;;;;;93.75;71.50;8.70;62.90;;;;;;5035047;28;8774;-62
2022/03/07 07:15:13;;;;;;;;;99.50;78.25;8.80;63.00;;;;;;5035214;28;9657;-63
2022/03/07 07:17:40;;;;;;;;;101.50;83.50;8.70;63.70;;;;;;5034924;28;8762;-62
2022/03/07 07:20:08;;;;;;;;;88.25;70.50;8.90;63.20;;;;;;5035122;28;8778;-63
2022/03/07 07:22:34;;;;;;;;;93.00;73.50;9.00;62.30;;;;;;5035069;28;8758;-62
2022/03/07 07:25:00;;;;;;;;;90.50;68.00;9.10;61.40;;;;;;5035142;28;8826;-62
2022/03/07 07:27:26;;;;;;;;;95.25;82.00;8.80;62.50;;;;;;5035067;28;8775;-63
2022/03/07 07:29:52;;;;;;;;;86.00;67.50;8.80;62.00;;;;;;5034740;28;8797;-62
2022/03/07 07:32:18;;;;;;;;;80.75;64.00;8.80;62.90;;;;;;5034935;28;8773;-62
2022/03/07 07:34:44;;;;;;;;;83.75;66.00;8.10;65.60;;;;;;5034616;28;9452;-62
2022/03/07 07:37:10;;;;;;;;;82.00;63.75;7.70;67.30;;;;;;5034889;28;8881;-62
2022/03/07 07:39:35;;;;;;;;;72.25;58.25;8.00;66.90;;;;;;5034607;28;8770;-62
2022/03/07 07:42:02;;;;;;;;;75.25;58.00;8.50;65.00;;;;;;5034780;28;8810;-62
2022/03/07 07:44:27;;;;;;;;;76.50;60.00;8.70;63.60;;;;;;5034716;28;8767;-62
2022/03/07 07:46:54;;;;;;;;;84.50;65.00;9.00;62.40;;;;;;5034530;28;8778;-63
2022/03/07 07:49:21;;;;;;;;;78.75;62.50;9.10;61.70;;;;;;5034420;28;8758;-63
2022/03/07 07:51:47;;;;;;;;;74.75;60.00;8.90;62.30;;;;;;5034394;28;8766;-63
2022/03/07 07:54:13;;;;;;;;;82.00;64.50;8.60;62.10;;;;;;5016544;28;8826;-62
2022/03/07 07:56:39;;;;;;;;;62.75;53.25;8.10;64.40;;;;;;5034358;28;8580;-62
2022/03/07 07:59:05;;;;;;;;;76.00;61.00;8.40;64.80;;;;;;5034342;28;8789;-63
2022/03/07 08:01:31;;;;;;;;;71.00;55.00;8.20;65.40;;;;;;5033743;28;8804;-62
2022/03/07 08:03:57;;;;;;;;;75.50;56.50;7.70;67.20;;;;;;5034610;28;8789;-62
2022/03/07 08:06:23;;;;;;;;;66.75;53.00;7.80;68.40;;;;;;5033923;28;8851;-63
2022/03/07 08:08:49;;;;;;;;;63.75;52.50;8.00;65.80;;;;;;5034261;28;8782;-63
2022/03/07 08:11:15;;;;;;;;;66.25;52.00;7.70;67.00;;;;;;5034185;28;8784;-63
2022/03/07 08:13:40;;;;;;;;;65.25;52.50;7.50;67.90;;;;;;5034197;28;8810;-63
2022/03/07 08:16:06;;;;;;;;;65.75;52.00;7.60;68.20;;;;;;5033476;28;8805;-63
2022/03/07 08:18:32;;;;;;;;;70.00;57.00;7.50;67.70;;;;;;5034101;28;8755;-63
2022/03/07 08:21:00;;;;;;;;;57.75;49.50;7.00;71.20;;;;;;5016703;28;8774;-63
2022/03/07 08:23:26;;;;;;;;;75.75;57.25;7.20;71.90;;;;;;5034232;28;8801;-63
2022/03/07 08:25:52;;;;;;;;;74.25;55.50;7.90;68.20;;;;;;5034086;28;8770;-63
2022/03/07 08:28:18;;;;;;;;;70.00;56.75;7.90;68.00;;;;;;5034205;28;8759;-63
2022/03/07 08:30:44;;;;;;;;;67.25;53.00;8.00;66.40;;;;;;5033677;28;8759;-63
2022/03/07 08:33:10;;;;;;;;;61.75;50.25;7.70;68.50;;;;;;5034316;28;8778;-62
2022/03/07 08:35:36;;;;;;;;;65.75;52.00;7.50;68.70;;;;;;5033650;28;8798;-63
2022/03/07 08:38:02;;;;;;;;;67.00;52.00;7.30;70.40;;;;;;5034104;28;8762;-64
2022/03/07 08:40:29;;;;;;;;;71.75;57.75;7.00;72.90;;;;;;5034244;28;8766;-64
2022/03/07 08:42:55;;;;;;;;;64.50;51.00;7.20;73.70;;;;;;5034199;28;8770;-65
2022/03/07 08:45:23;;;;;;;;;60.75;50.50;7.10;71.20;;;;;;5033907;28;8817;-65
2022/03/07 08:47:50;;;;;;;;;73.00;53.75;7.10;73.40;;;;;;5033909;28;8774;-65
2022/03/07 08:50:18;;;;;;;;;66.75;53.25;7.60;71.30;;;;;;5033896;28;8789;-64
2022/03/07 08:52:45;;;;;;;;;68.75;54.75;7.90;68.60;;;;;;5033868;28;8781;-64
2022/03/07 08:55:11;;;;;;;;;70.00;55.25;7.50;69.30;;;;;;5033554;28;8869;-64
2022/03/07 08:57:38;;;;;;;;;71.25;54.75;7.00;72.40;;;;;;5033725;28;8781;-64
2022/03/07 09:00:07;;;;;;;;;71.50;55.00;6.90;76.70;;;;;;5033530;28;8766;-65
2022/03/07 09:02:33;;;;;;;;;67.75;55.25;7.30;73.10;;;;;;5033690;28;8840;-64
2022/03/07 09:04:59;;;;;;;;;73.50;57.75;7.60;69.80;;;;;;5033538;28;8782;-64
2022/03/07 09:07:28;;;;;;;;;66.00;53.50;7.90;69.00;;;;;;5033694;28;8767;-65
2022/03/07 09:09:55;;;;;;;;;71.50;56.50;7.40;67.80;;;;;;5033897;28;8877;-64
2022/03/07 09:12:22;;;;;;;;;74.75;57.25;7.00;72.10;;;;;;5033630;28;8778;-65
2022/03/07 09:14:48;;;;;;;;;74.00;59.25;7.00;72.00;;;;;;5033786;28;8798;-65
2022/03/07 09:17:14;;;;;;;;;79.25;59.75;7.00;72.70;;;;;;5033491;28;8762;-65
2022/03/07 09:19:40;;;;;;;;;70.50;57.00;6.50;76.00;;;;;;5036134;28;8774;-64
2022/03/07 09:22:06;;;;;;;;;69.75;54.00;6.30;77.20;;;;;;5037466;28;8762;-64
2022/03/07 09:24:31;;;;;;;;;64.00;51.25;6.30;77.20;;;;;;5037238;28;8818;-64
2022/03/07 09:26:57;;;;;;;;;73.75;57.75;5.80;79.30;;;;;;5037020;28;8840;-65
2022/03/07 09:29:24;;;;;;;;;71.50;53.00;5.60;84.60;;;;;;5036794;28;8917;-65
2022/03/07 09:31:51;;;;;;;;;80.25;61.25;5.60;88.40;;;;;;5037188;28;8839;-66
2022/03/07 09:34:17;;;;;;;;;80.75;63.00;6.00;81.90;;;;;;5037321;28;8774;-65
2022/03/07 09:36:43;;;;;;;;;78.25;59.75;6.20;79.10;;;;;;5037642;28;8775;-65
2022/03/07 09:39:12;;;;;;;;;74.00;58.75;7.10;75.00;;;;;;5037533;28;8762;-64
2022/03/07 09:41:43;;;;;;;;;82.75;63.50;6.30;76.60;;;;;;5036979;28;8801;-65
2022/03/07 09:44:11;;;;;;;;;83.50;63.50;6.30;77.10;;;;;;5036980;28;8790;-67
2022/03/07 09:46:37;;;;;;;;;78.25;62.50;6.40;77.70;;;;;;5036865;28;8885;-64
2022/03/07 09:49:03;;;;;;;;;78.00;62.00;5.80;79.20;;;;;;5036732;28;8880;-64
2022/03/07 09:51:29;;;;;;;;;79.50;61.00;5.80;82.00;;;;;;5036914;28;8771;-64
2022/03/07 09:53:55;;;;;;;;;74.00;61.50;6.40;79.10;;;;;;5036319;28;8952;-65
2022/03/07 09:56:21;;;;;;;;;81.00;61.75;7.00;73.60;;;;;;5036467;28;8920;-63
2022/03/07 09:58:47;;;;;;;;;71.50;58.00;7.10;71.20;;;;;;5036465;28;9443;-64
2022/03/07 10:01:19;;;;;;;;;76.50;60.50;7.40;68.90;;;;;;5036355;28;8785;-64
2022/03/07 10:03:48;;;;;;;;;80.75;62.25;6.90;70.60;;;;;;5036613;28;8792;-64
2022/03/07 10:06:16;;;;;;;;;77.25;62.25;6.70;74.20;;;;;;5036463;28;8781;-65
2022/03/07 10:08:56;;;;;;;;;85.25;66.50;7.70;69.90;;;;;;5036246;28;8769;-65
2022/03/07 10:11:23;;;;;;;;;71.00;57.00;8.20;67.00;;;;;;5036547;28;8832;-64
2022/03/07 10:13:52;;;;;;;;;81.00;62.75;7.60;64.70;;;;;;5036477;28;8759;-64
2022/03/07 10:16:20;;;;;;;;;77.75;62.00;8.30;64.40;;;;;;5034367;28;8814;-64
2022/03/07 10:18:52;;;;;;;;;75.00;59.00;8.00;61.90;;;;;;5036353;28;9436;-64
2022/03/07 10:21:26;;;;;;;;;73.00;56.25;7.70;64.30;;;;;;5036282;28;8754;-64
2022/03/07 10:23:54;;;;;;;;;72.00;56.25;7.80;63.30;;;;;;5035997;28;8802;-63
2022/03/07 10:26:21;;;;;;;;;69.75;57.00;8.20;62.70;;;;;;5036199;28;8774;-64
2022/03/07 10:28:55;;;;;;;;;70.00;55.25;8.20;60.90;;;;;;5035849;28;8754;-65
2022/03/07 10:31:21;;;;;;;;;71.00;57.00;8.20;59.00;;;;;;5035811;28;8759;-65
2022/03/07 10:33:59;;;;;;;;;68.00;54.25;8.40;57.90;;;;;;5035938;28;8766;-65
2022/03/07 10:36:34;;;;;;;;;64.50;53.00;8.30;58.50;;;;;;5035577;28;8822;-65
2022/03/07 10:39:03;;;;;;;;;73.25;56.25;7.70;60.80;;;;;;5035182;28;8762;-64
2022/03/07 10:41:43;;;;;;;;;73.00;58.00;7.90;62.00;;;;;;5035719;28;9875;-65
2022/03/07 10:44:22;;;;;;;;;75.25;58.75;8.10;60.90;;;;;;5035857;28;8851;-65
2022/03/07 10:46:48;;;;;;;;;72.50;55.25;7.90;61.00;;;;;;5035561;28;8774;-65
2022/03/07 10:49:16;;;;;;;;;72.25;58.50;8.00;61.10;;;;;;5035452;28;8801;-65
2022/03/07 10:51:52;;;;;;;;;68.75;54.50;7.90;61.00;;;;;;5035664;28;8754;-65
2022/03/07 10:54:20;;;;;;;;;70.00;55.25;7.80;60.80;;;;;;5035111;28;8818;-65
2022/03/07 10:56:54;;;;;;;;;69.50;56.50;7.40;60.50;;;;;;5035549;28;9471;-65
2022/03/07 10:59:32;;;;;;;;;68.50;54.25;7.10;61.00;;;;;;5035181;28;8770;-65
2022/03/07 11:02:00;;;;;;;;;72.50;57.00;6.90;60.00;;;;;;5035235;28;8772;-65
2022/03/07 11:04:26;;;;;;;;;74.75;59.50;6.90;60.50;;;;;;5035524;28;9546;-65
2022/03/07 11:06:52;;;;;;;;;67.50;54.00;6.90;58.20;;;;;;5035487;28;8754;-64
2022/03/07 11:09:18;;;;;;;;;70.75;55.75;6.60;57.00;;;;;;5035191;28;8851;-65
2022/03/07 11:11:45;;;;;;;;;72.25;57.25;7.10;58.80;;;;;;5035132;28;8762;-64
2022/03/07 11:14:12;;;;;;;;;74.00;57.25;6.90;57.00;;;;;;5034878;28;8781;-65
2022/03/07 11:16:39;;;;;;;;;72.00;57.00;7.80;56.60;;;;;;5034981;28;8802;-66
2022/03/07 11:19:06;;;;;;;;;78.25;60.50;8.30;55.70;;;;;;5035255;28;8750;-66
2022/03/07 11:21:35;;;;;;;;;75.00;59.25;9.10;54.30;;;;;;5017283;28;8794;-64
2022/03/07 11:24:01;;;;;;;;;77.50;61.75;8.50;54.50;;;;;;5034919;28;8838;-63
2022/03/07 11:26:27;;;;;;;;;64.25;52.25;8.80;54.30;;;;;;5035052;28;8790;-63
2022/03/07 11:28:57;;;;;;;;;68.50;53.50;8.80;52.50;;;;;;5034771;28;8758;-64
2022/03/07 11:31:26;;;;;;;;;68.75;54.50;8.30;52.10;;;;;;5034812;28;8891;-64
2022/03/07 11:33:54;;;;;;;;;67.00;53.00;8.50;54.10;;;;;;5034730;28;8782;-64
2022/03/07 11:36:22;;;;;;;;;66.00;53.00;8.70;54.70;;;;;;5034639;28;8806;-66
2022/03/07 11:38:55;;;;;;;;;75.00;59.00;8.20;54.60;;;;;;5017214;28;8778;-63
2022/03/07 11:41:32;;;;;;;;;76.50;60.00;8.80;54.40;;;;;;5034169;28;8789;-64
2022/03/07 11:44:02;;;;;;;;;73.50;58.00;9.20;53.00;;;;;;5034926;28;9477;-65
2022/03/07 11:46:33;;;;;;;;;84.00;66.00;9.20;52.10;;;;;;5034497;28;8789;-66
2022/03/07 11:49:00;;;;;;;;;79.25;59.50;8.70;54.30;;;;;;5034840;28;8766;-65
2022/03/07 11:51:31;;;;;;;;;76.50;62.25;8.30;54.00;;;;;;5034676;28;8770;-65
2022/03/07 11:53:58;;;;;;;;;68.00;54.25;8.40;56.80;;;;;;5035119;28;8824;-65
2022/03/07 11:56:28;;;;;;;;;77.25;62.25;8.50;55.40;;;;;;5034564;28;8818;-65
2022/03/07 11:58:56;;;;;;;;;76.25;57.75;8.90;56.80;;;;;;5034571;28;8747;-65
2022/03/07 12:01:24;;;;;;;;;73.00;58.25;9.90;51.80;;;;;;5048175;28;8804;-64
2022/03/07 12:03:50;;;;;;;;;80.75;63.00;10.50;50.40;;;;;;5038762;28;8760;-64
2022/03/07 12:06:19;;;;;;;;;75.00;60.25;10.10;49.40;;;;;;5045506;28;8822;-64
2022/03/07 12:08:51;;;;;;;;;75.25;61.00;9.70;51.50;;;;;;5034249;28;8774;-64
2022/03/07 12:11:25;;;;;;;;;71.25;56.50;8.70;51.90;;;;;;5034245;28;8797;-64
2022/03/07 12:13:53;;;;;;;;;74.75;59.50;8.20;55.70;;;;;;5034433;28;8905;-64
2022/03/07 12:16:31;;;;;;;;;69.50;55.00;8.90;55.00;;;;;;5033870;28;8817;-64
2022/03/07 12:19:10;;;;;;;;;69.25;55.00;9.00;53.60;;;;;;5034304;28;8762;-64
2022/03/07 12:21:42;;;;;;;;;76.75;58.00;8.50;54.10;;;;;;5043076;28;8844;-64
2022/03/07 12:24:09;;;;;;;;;68.50;55.50;8.50;54.60;;;;;;5035486;28;8949;-64
2022/03/07 12:26:56;;;;;;;;;70.75;55.50;8.30;54.80;;;;;;5040609;28;8764;-64
2022/03/07 12:29:24;;;;;;;;;68.25;54.75;8.40;55.40;;;;;;5047576;28;8814;-64
2022/03/07 12:31:55;;;;;;;;;65.75;53.75;8.20;55.40;;;;;;5059100;28;8770;-64
2022/03/07 12:34:29;;;;;;;;;70.75;57.75;7.90;57.50;;;;;;5061765;28;8868;-64
2022/03/07 12:37:20;;;;;;;;;75.25;59.00;7.90;57.60;;;;;;5055587;28;9509;-63
2022/03/07 12:40:00;;;;;;;;;77.50;61.75;8.50;57.00;;;;;;5063535;28;8776;-64
2022/03/07 12:42:29;;;;;;;;;69.75;56.25;10.00;54.40;;;;;;5057665;28;8790;-64
2022/03/07 12:44:59;;;;;;;;;69.25;55.50;10.80;48.70;;;;;;5062490;28;9436;-64